Time;durP1;ratioP1;P1;durP2;ratioP2;P2;SDS_P1;SDS_P2;PMS_P1;PMS_P2;Temp;Humidity;BMP_temperature;BMP_pressure;BME280_temperature;BME280_humidity;BME280_pressure;Samples;Min_cycle;Max_cycle;Signal;HPM_P1;HPM_P2
2022/06/28 00:02:13;;;;;;;8.85;4.55;;;;;;;;;;5015483;28;20108;-75
2022/06/28 00:04:39;;;;;;;7.80;4.38;;;;;;;;;;5020031;28;20105;-75
2022/06/28 00:07:05;;;;;;;7.78;4.15;;;;;;;;;;5016225;28;20042;-75
2022/06/28 00:09:31;;;;;;;6.30;4.38;;;;;;;;;;5025466;28;20033;-75
2022/06/28 00:11:57;;;;;;;5.22;4.28;;;;;;;;;;5016679;28;20026;-76
2022/06/28 00:17:08;;;;;;;6.32;4.22;;;;;;;;;;5015012;28;20641;-76
2022/06/28 00:19:34;;;;;;;5.43;4.07;;;;;;;;;;5021978;28;20029;-75
2022/06/28 00:22:00;;;;;;;6.75;4.15;;;;;;;;;;5013803;28;20442;-76
2022/06/28 00:24:27;;;;;;;7.43;4.30;;;;;;;;;;5022238;28;20033;-76
2022/06/28 00:26:53;;;;;;;6.00;4.13;;;;;;;;;;5013576;28;20433;-76
2022/06/28 00:29:19;;;;;;;5.95;4.15;;;;;;;;;;4993505;28;20026;-75
2022/06/28 00:31:45;;;;;;;5.30;4.30;;;;;;;;;;5009757;28;20022;-75
2022/06/28 00:34:11;;;;;;;5.20;4.10;;;;;;;;;;5003947;28;21289;-76
2022/06/28 00:36:37;;;;;;;4.80;3.78;;;;;;;;;;5027366;28;20030;-76
2022/06/28 00:39:03;;;;;;;7.03;4.40;;;;;;;;;;5019253;28;20483;-76
2022/06/28 00:41:29;;;;;;;7.88;4.30;;;;;;;;;;5013790;28;20117;-76
2022/06/28 00:43:56;;;;;;;7.22;4.30;;;;;;;;;;5020058;28;20021;-76
2022/06/28 00:46:23;;;;;;;6.60;4.72;;;;;;;;;;5012647;28;20105;-75
2022/06/28 00:48:49;;;;;;;5.03;4.07;;;;;;;;;;5011999;28;20068;-75
2022/06/28 00:51:16;;;;;;;5.13;4.13;;;;;;;;;;5023715;28;20057;-76
2022/06/28 00:53:42;;;;;;;6.70;4.30;;;;;;;;;;5018487;28;20061;-75
2022/06/28 00:56:08;;;;;;;7.07;4.32;;;;;;;;;;5022328;28;20014;-76
2022/06/28 00:58:34;;;;;;;5.07;4.20;;;;;;;;;;5023261;28;20763;-75
2022/06/28 01:01:00;;;;;;;6.30;4.47;;;;;;;;;;5020961;28;20155;-75
2022/06/28 01:03:27;;;;;;;6.25;3.95;;;;;;;;;;5020049;28;20033;-75
2022/06/28 01:05:54;;;;;;;5.50;4.30;;;;;;;;;;5024584;28;20148;-75
2022/06/28 01:08:20;;;;;;;7.35;4.28;;;;;;;;;;5020310;28;20037;-76
2022/06/28 01:10:46;;;;;;;8.85;4.75;;;;;;;;;;5018719;28;20041;-77
2022/06/28 01:13:13;;;;;;;7.07;4.22;;;;;;;;;;5023247;28;20022;-75
2022/06/28 01:15:41;;;;;;;7.35;4.20;;;;;;;;;;5025898;28;20079;-76
2022/06/28 01:18:08;;;;;;;7.93;4.47;;;;;;;;;;5028234;28;20411;-76
2022/06/28 01:20:34;;;;;;;5.75;4.20;;;;;;;;;;5005525;28;20119;-75
2022/06/28 01:23:01;;;;;;;6.57;3.90;;;;;;;;;;5024704;28;20026;-75
2022/06/28 01:25:27;;;;;;;5.95;4.65;;;;;;;;;;5017937;28;20038;-77
2022/06/28 01:27:54;;;;;;;5.70;4.40;;;;;;;;;;5020105;28;20030;-75
2022/06/28 01:30:20;;;;;;;6.20;4.18;;;;;;;;;;5022056;28;20061;-75
2022/06/28 01:32:46;;;;;;;5.47;4.55;;;;;;;;;;5019795;28;20021;-75
2022/06/28 01:35:12;;;;;;;7.10;4.07;;;;;;;;;;5018434;28;20026;-75
2022/06/28 01:37:38;;;;;;;8.60;4.93;;;;;;;;;;5029693;28;20116;-76
2022/06/28 01:40:05;;;;;;;6.60;4.20;;;;;;;;;;5019796;28;20034;-75
2022/06/28 01:42:31;;;;;;;6.03;4.65;;;;;;;;;;5016931;28;20104;-76
2022/06/28 01:44:58;;;;;;;6.63;5.20;;;;;;;;;;5018852;28;20022;-76
2022/06/28 01:47:25;;;;;;;8.25;5.60;;;;;;;;;;5021791;28;20033;-76
2022/06/28 01:49:51;;;;;;;14.90;5.57;;;;;;;;;;5019680;28;20479;-76
2022/06/28 01:52:18;;;;;;;7.35;5.40;;;;;;;;;;5016081;28;20501;-76
2022/06/28 01:54:44;;;;;;;11.52;5.57;;;;;;;;;;5022648;28;20106;-76
2022/06/28 01:57:10;;;;;;;8.48;5.85;;;;;;;;;;5023026;28;20026;-75
2022/06/28 01:59:37;;;;;;;7.65;5.07;;;;;;;;;;5022918;28;20045;-76
2022/06/28 02:02:03;;;;;;;8.60;5.05;;;;;;;;;;5023562;28;20041;-75
2022/06/28 02:04:30;;;;;;;8.32;5.68;;;;;;;;;;5010537;28;20030;-74
2022/06/28 02:06:56;;;;;;;7.28;5.32;;;;;;;;;;5017335;28;20025;-75
2022/06/28 02:09:23;;;;;;;6.70;5.05;;;;;;;;;;5016762;28;20026;-76
2022/06/28 02:11:49;;;;;;;6.85;5.15;;;;;;;;;;5024003;28;20032;-74
2022/06/28 02:14:15;;;;;;;8.38;4.95;;;;;;;;;;5013176;28;20041;-75
2022/06/28 02:16:41;;;;;;;7.00;5.50;;;;;;;;;;5018695;28;20045;-75
2022/06/28 02:19:08;;;;;;;7.13;5.18;;;;;;;;;;5024548;28;20365;-75
2022/06/28 02:21:37;;;;;;;7.40;5.00;;;;;;;;;;5023029;28;20060;-75
2022/06/28 02:24:04;;;;;;;7.55;5.47;;;;;;;;;;5015079;28;20101;-75
2022/06/28 02:26:32;;;;;;;8.30;6.03;;;;;;;;;;5018537;28;20539;-75
2022/06/28 02:28:59;;;;;;;7.38;5.70;;;;;;;;;;5016515;28;20407;-74
2022/06/28 02:31:25;;;;;;;7.28;5.30;;;;;;;;;;5019841;28;20092;-75
2022/06/28 02:33:51;;;;;;;10.60;5.53;;;;;;;;;;5019437;28;20475;-74
2022/06/28 02:41:48;;;;;;;7.80;5.90;;;;;;;;;;5018556;28;20040;-74
2022/06/28 02:44:16;;;;;;;9.20;6.43;;;;;;;;;;5011533;28;20024;-74
2022/06/28 02:46:42;;;;;;;9.90;5.95;;;;;;;;;;5013357;28;20499;-75
2022/06/28 02:49:08;;;;;;;6.65;5.45;;;;;;;;;;5023755;28;20422;-74
2022/06/28 02:51:34;;;;;;;12.00;6.03;;;;;;;;;;5015925;28;20028;-73
2022/06/28 02:54:00;;;;;;;6.97;5.30;;;;;;;;;;4999389;28;20033;-73
2022/06/28 02:56:26;;;;;;;7.13;4.82;;;;;;;;;;5005112;28;20581;-78
2022/06/28 02:58:52;;;;;;;6.50;5.43;;;;;;;;;;5012975;28;20025;-71
2022/06/28 03:01:18;;;;;;;8.10;5.70;;;;;;;;;;5010717;28;20038;-72
2022/06/28 03:03:44;;;;;;;8.85;5.68;;;;;;;;;;5009639;28;20037;-74
2022/06/28 03:06:10;;;;;;;7.57;5.97;;;;;;;;;;5010027;28;20108;-73
2022/06/28 03:08:36;;;;;;;7.57;5.95;;;;;;;;;;5010467;28;20026;-74
2022/06/28 03:11:02;;;;;;;8.90;5.95;;;;;;;;;;5011774;28;20088;-73
2022/06/28 03:13:28;;;;;;;7.00;5.45;;;;;;;;;;4990273;28;20569;-73
2022/06/28 03:15:54;;;;;;;7.35;5.40;;;;;;;;;;5006305;28;20488;-83
2022/06/28 03:18:21;;;;;;;7.95;5.80;;;;;;;;;;4990183;28;20030;-72
2022/06/28 03:20:47;;;;;;;7.18;5.43;;;;;;;;;;5004519;28;20040;-72
2022/06/28 03:23:13;;;;;;;12.35;6.40;;;;;;;;;;5009418;28;20495;-72
2022/06/28 03:25:39;;;;;;;8.52;6.20;;;;;;;;;;5010093;28;20030;-73
2022/06/28 03:28:05;;;;;;;11.00;5.85;;;;;;;;;;5007616;28;20080;-72
2022/06/28 03:30:32;;;;;;;8.45;4.88;;;;;;;;;;5010794;28;20913;-77
2022/06/28 03:32:58;;;;;;;8.20;5.32;;;;;;;;;;5010361;28;20022;-82
2022/06/28 03:35:24;;;;;;;8.60;5.75;;;;;;;;;;5008054;28;20022;-80
2022/06/28 03:37:50;;;;;;;7.50;5.85;;;;;;;;;;5009776;28;20365;-73
2022/06/28 03:40:17;;;;;;;8.10;5.50;;;;;;;;;;5010066;28;20041;-74
2022/06/28 03:42:43;;;;;;;9.85;5.93;;;;;;;;;;5009168;28;20467;-73
2022/06/28 03:45:09;;;;;;;11.82;5.75;;;;;;;;;;5008613;28;20038;-72
2022/06/28 03:47:35;;;;;;;10.23;6.10;;;;;;;;;;5009982;28;20030;-72
2022/06/28 03:50:01;;;;;;;9.13;5.45;;;;;;;;;;5010314;28;20060;-73
2022/06/28 03:52:30;;;;;;;8.57;5.75;;;;;;;;;;5009155;28;20030;-73
2022/06/28 03:54:57;;;;;;;14.25;6.30;;;;;;;;;;5009186;28;20076;-72
2022/06/28 03:57:25;;;;;;;14.88;5.88;;;;;;;;;;5004275;28;20029;-72
2022/06/28 03:59:51;;;;;;;8.07;5.22;;;;;;;;;;5010690;28;20060;-73
2022/06/28 04:02:17;;;;;;;9.57;5.55;;;;;;;;;;5010083;28;20045;-72
2022/06/28 04:04:43;;;;;;;9.23;5.03;;;;;;;;;;5011334;28;20114;-73
2022/06/28 04:07:09;;;;;;;8.88;5.47;;;;;;;;;;5011815;28;20048;-72
2022/06/28 04:09:35;;;;;;;14.13;5.50;;;;;;;;;;5013789;28;20043;-73
2022/06/28 04:12:01;;;;;;;8.02;4.97;;;;;;;;;;5011819;28;20026;-74
2022/06/28 04:14:27;;;;;;;11.00;6.00;;;;;;;;;;5015258;28;20129;-73
2022/06/28 04:16:53;;;;;;;7.95;6.18;;;;;;;;;;5012007;28;20129;-73
2022/06/28 04:19:19;;;;;;;14.40;5.38;;;;;;;;;;5012174;28;20041;-73
2022/06/28 04:21:45;;;;;;;13.23;5.53;;;;;;;;;;5011010;28;20080;-73
2022/06/28 04:24:11;;;;;;;6.50;4.72;;;;;;;;;;5013398;28;20110;-75
2022/06/28 04:26:38;;;;;;;7.93;4.70;;;;;;;;;;5013153;28;20026;-73
2022/06/28 04:29:04;;;;;;;15.68;5.43;;;;;;;;;;5009587;28;20088;-73
2022/06/28 04:31:30;;;;;;;10.68;5.03;;;;;;;;;;5012755;28;20026;-75
2022/06/28 04:33:56;;;;;;;6.78;4.90;;;;;;;;;;5012191;28;20053;-75
2022/06/28 04:36:23;;;;;;;5.25;4.55;;;;;;;;;;5013498;28;20034;-73
2022/06/28 04:38:49;;;;;;;7.88;5.00;;;;;;;;;;5011764;28;20041;-73
2022/06/28 04:41:15;;;;;;;8.73;4.90;;;;;;;;;;5011460;28;20577;-74
2022/06/28 04:43:41;;;;;;;8.45;5.22;;;;;;;;;;5011655;28;20463;-74
2022/06/28 04:46:07;;;;;;;13.65;5.30;;;;;;;;;;5010515;28;20480;-76
2022/06/28 04:48:33;;;;;;;9.05;5.07;;;;;;;;;;5011311;28;20494;-78
2022/06/28 04:51:10;;;;;;;8.23;4.72;;;;;;;;;;5009346;28;20038;-74
2022/06/28 04:53:38;;;;;;;16.23;5.15;;;;;;;;;;5011561;28;20025;-74
2022/06/28 04:56:04;;;;;;;8.45;5.20;;;;;;;;;;5013267;28;20076;-73
2022/06/28 04:58:30;;;;;;;7.78;4.97;;;;;;;;;;5012248;28;20519;-73
2022/06/28 05:00:58;;;;;;;7.68;5.28;;;;;;;;;;5013407;28;20029;-76
2022/06/28 05:03:25;;;;;;;12.13;5.90;;;;;;;;;;5008728;28;20018;-78
2022/06/28 05:05:51;;;;;;;12.52;8.02;;;;;;;;;;4991693;28;20112;-75
2022/06/28 05:08:17;;;;;;;26.42;11.60;;;;;;;;;;5010399;28;20030;-78
2022/06/28 05:10:43;;;;;;;22.83;13.40;;;;;;;;;;5012348;28;20030;-84
2022/06/28 05:13:09;;;;;;;30.08;12.75;;;;;;;;;;4992223;28;20396;-77
2022/06/28 05:15:35;;;;;;;20.33;11.27;;;;;;;;;;4988238;28;20050;-77
2022/06/28 05:18:01;;;;;;;13.05;7.82;;;;;;;;;;4996687;28;20033;-78
2022/06/28 05:20:27;;;;;;;14.88;7.75;;;;;;;;;;5013455;28;20038;-74
2022/06/28 05:22:53;;;;;;;13.98;6.82;;;;;;;;;;5004730;28;20457;-76
2022/06/28 05:25:19;;;;;;;10.45;6.18;;;;;;;;;;5012309;28;20361;-74
2022/06/28 05:27:45;;;;;;;8.65;5.85;;;;;;;;;;5012494;28;20033;-72
2022/06/28 05:30:12;;;;;;;8.90;5.10;;;;;;;;;;5011314;28;20026;-73
2022/06/28 05:32:38;;;;;;;9.07;5.22;;;;;;;;;;5009549;28;20109;-74
2022/06/28 05:35:05;;;;;;;9.50;5.00;;;;;;;;;;5011912;28;20025;-74
2022/06/28 05:37:32;;;;;;;13.57;4.82;;;;;;;;;;5012350;28;20054;-74
2022/06/28 05:39:58;;;;;;;7.85;4.70;;;;;;;;;;5008924;28;20105;-74
2022/06/28 05:42:24;;;;;;;11.13;4.82;;;;;;;;;;5010203;28;20153;-74
2022/06/28 05:44:50;;;;;;;13.43;4.88;;;;;;;;;;4999749;28;20029;-72
2022/06/28 05:47:16;;;;;;;10.77;5.30;;;;;;;;;;5009077;28;20045;-75
2022/06/28 05:49:42;;;;;;;7.05;4.88;;;;;;;;;;4984384;28;20364;-75
2022/06/28 05:52:08;;;;;;;9.95;4.90;;;;;;;;;;5006796;28;20026;-75
2022/06/28 05:54:35;;;;;;;10.20;5.53;;;;;;;;;;5010604;28;20418;-75
2022/06/28 05:57:01;;;;;;;11.88;4.85;;;;;;;;;;5011703;28;20434;-73
2022/06/28 05:59:27;;;;;;;6.63;4.63;;;;;;;;;;5011671;28;20022;-74
2022/06/28 06:01:55;;;;;;;5.82;4.70;;;;;;;;;;5012178;28;20041;-74
2022/06/28 06:04:22;;;;;;;6.75;4.50;;;;;;;;;;5004388;28;20201;-73
2022/06/28 06:06:48;;;;;;;8.43;5.00;;;;;;;;;;5011090;28;20029;-74
2022/06/28 06:09:14;;;;;;;13.70;4.88;;;;;;;;;;5011031;28;20378;-78
2022/06/28 06:11:40;;;;;;;10.00;5.30;;;;;;;;;;5006362;28;20026;-76
2022/06/28 06:14:06;;;;;;;8.90;4.57;;;;;;;;;;5009233;28;20391;-78
2022/06/28 06:16:32;;;;;;;6.50;4.55;;;;;;;;;;5009523;28;20046;-77
2022/06/28 06:18:58;;;;;;;12.75;5.10;;;;;;;;;;5009872;28;20499;-79
2022/06/28 06:21:24;;;;;;;6.68;5.00;;;;;;;;;;5013051;28;20045;-78
2022/06/28 06:23:50;;;;;;;8.68;4.90;;;;;;;;;;5020449;28;20021;-80
2022/06/28 06:26:16;;;;;;;6.20;4.78;;;;;;;;;;4998986;28;20073;-77
2022/06/28 06:28:42;;;;;;;5.55;4.60;;;;;;;;;;4988002;28;20026;-78
2022/06/28 06:31:09;;;;;;;23.25;6.22;;;;;;;;;;4991260;28;20121;-75
2022/06/28 06:33:35;;;;;;;10.63;4.97;;;;;;;;;;5013990;28;20037;-77
2022/06/28 06:36:02;;;;;;;11.40;5.05;;;;;;;;;;5008122;28;20026;-79
2022/06/28 06:38:28;;;;;;;18.90;5.40;;;;;;;;;;5012116;28;20058;-76
2022/06/28 06:40:58;;;;;;;6.80;5.10;;;;;;;;;;5009856;28;20041;-76
2022/06/28 06:43:24;;;;;;;10.70;5.50;;;;;;;;;;5012449;28;20026;-75
2022/06/28 06:45:50;;;;;;;8.93;5.93;;;;;;;;;;5007213;28;20049;-74
2022/06/28 06:48:17;;;;;;;7.03;5.50;;;;;;;;;;5011187;28;20030;-79
2022/06/28 06:50:43;;;;;;;6.40;5.50;;;;;;;;;;5008449;28;20034;-76
2022/06/28 06:53:10;;;;;;;10.35;5.70;;;;;;;;;;5003145;28;20034;-76
2022/06/28 06:55:36;;;;;;;9.15;5.47;;;;;;;;;;5010710;28;20052;-82
2022/06/28 06:58:03;;;;;;;7.65;5.45;;;;;;;;;;5011210;28;20507;-80
2022/06/28 07:00:30;;;;;;;11.23;6.70;;;;;;;;;;5011005;28;20030;-80
2022/06/28 07:02:56;;;;;;;10.52;5.68;;;;;;;;;;5000764;28;20105;-85
2022/06/28 07:05:22;;;;;;;9.18;5.20;;;;;;;;;;5012764;28;20088;-86
2022/06/28 07:07:48;;;;;;;9.68;5.97;;;;;;;;;;4990436;28;20121;-79
2022/06/28 07:10:14;;;;;;;9.45;5.97;;;;;;;;;;5009829;28;20026;-73
2022/06/28 07:12:41;;;;;;;9.63;5.65;;;;;;;;;;5010863;28;20367;-74
2022/06/28 07:15:07;;;;;;;11.98;5.68;;;;;;;;;;5009709;28;20028;-80
2022/06/28 07:17:33;;;;;;;9.93;5.30;;;;;;;;;;5011349;28;20042;-81
2022/06/28 07:20:00;;;;;;;8.82;5.38;;;;;;;;;;5015112;28;20045;-80
2022/06/28 07:22:26;;;;;;;9.63;5.45;;;;;;;;;;5012693;28;20022;-84
2022/06/28 07:24:53;;;;;;;9.63;5.00;;;;;;;;;;5010583;28;20018;-77
2022/06/28 07:27:20;;;;;;;8.95;5.85;;;;;;;;;;4990196;28;20133;-81
2022/06/28 07:29:46;;;;;;;8.82;5.80;;;;;;;;;;5004326;28;20113;-73
2022/06/28 07:32:12;;;;;;;14.38;5.63;;;;;;;;;;5009764;28;20025;-75
2022/06/28 07:34:38;;;;;;;6.40;5.75;;;;;;;;;;5009361;28;20160;-76
2022/06/28 07:37:04;;;;;;;9.20;5.63;;;;;;;;;;5010551;28;20018;-84
2022/06/28 07:39:30;;;;;;;10.32;5.82;;;;;;;;;;5013474;28;20029;-78
2022/06/28 07:41:56;;;;;;;8.05;5.90;;;;;;;;;;5012738;28;20034;-74
2022/06/28 07:44:23;;;;;;;10.18;6.13;;;;;;;;;;5014858;28;20026;-79
2022/06/28 07:46:49;;;;;;;13.98;6.50;;;;;;;;;;5014513;28;20113;-79
2022/06/28 07:49:15;;;;;;;7.82;6.03;;;;;;;;;;5017349;28;20033;-82
2022/06/28 07:54:26;;;;;;;9.63;5.78;;;;;;;;;;5005782;28;20104;-83
2022/06/28 07:56:52;;;;;;;8.45;5.95;;;;;;;;;;5014473;28;20040;-85
2022/06/28 07:59:18;;;;;;;12.02;5.68;;;;;;;;;;4998034;28;20038;-79
2022/06/28 08:01:44;;;;;;;24.33;6.25;;;;;;;;;;5015076;28;20030;-81
2022/06/28 08:04:11;;;;;;;11.48;5.68;;;;;;;;;;5014591;28;20038;-82
2022/06/28 08:06:37;;;;;;;9.30;5.38;;;;;;;;;;5012051;28;20101;-77
2022/06/28 08:09:05;;;;;;;7.57;5.85;;;;;;;;;;5016923;28;20033;-84
2022/06/28 08:11:32;;;;;;;11.05;5.88;;;;;;;;;;5015491;28;20085;-76
2022/06/28 08:13:58;;;;;;;6.82;5.40;;;;;;;;;;5013822;28;20030;-83
2022/06/28 08:16:24;;;;;;;9.70;5.93;;;;;;;;;;5014067;28;20069;-81
2022/06/28 08:18:51;;;;;;;9.93;5.50;;;;;;;;;;5013475;28;20498;-80
2022/06/28 08:21:17;;;;;;;7.47;5.65;;;;;;;;;;5013430;28;20041;-81
2022/06/28 08:23:43;;;;;;;6.47;5.18;;;;;;;;;;5013889;28;20052;-80
2022/06/28 08:26:09;;;;;;;13.40;5.88;;;;;;;;;;5013374;28;20044;-80
2022/06/28 08:28:35;;;;;;;8.25;5.22;;;;;;;;;;5011326;28;20479;-80
2022/06/28 08:31:01;;;;;;;7.05;5.10;;;;;;;;;;5011438;28;20038;-80
2022/06/28 08:33:27;;;;;;;9.45;5.60;;;;;;;;;;5013963;28;20472;-80
2022/06/28 08:35:53;;;;;;;8.05;5.10;;;;;;;;;;5014034;28;20076;-82
2022/06/28 08:38:19;;;;;;;8.25;4.88;;;;;;;;;;5013097;28;20026;-87
2022/06/28 08:40:46;;;;;;;8.85;5.00;;;;;;;;;;5013240;28;20034;-88
2022/06/28 08:43:12;;;;;;;11.15;5.82;;;;;;;;;;4994255;28;20096;-81
2022/06/28 08:45:38;;;;;;;8.23;5.60;;;;;;;;;;5011714;28;20030;-83
2022/06/28 08:48:10;;;;;;;10.18;5.10;;;;;;;;;;5012533;28;20383;-81
2022/06/28 08:50:39;;;;;;;7.47;4.60;;;;;;;;;;5014745;28;20040;-84
2022/06/28 08:53:06;;;;;;;10.30;5.15;;;;;;;;;;5012120;28;20483;-82
2022/06/28 08:55:33;;;;;;;8.13;5.30;;;;;;;;;;5013725;28;20044;-83
2022/06/28 08:58:00;;;;;;;10.63;4.80;;;;;;;;;;5008586;28;20026;-81
2022/06/28 09:00:27;;;;;;;6.90;4.85;;;;;;;;;;5012568;28;20518;-79
2022/06/28 09:02:53;;;;;;;8.05;4.40;;;;;;;;;;5012793;28;20084;-78
2022/06/28 09:05:21;;;;;;;8.98;4.43;;;;;;;;;;5012281;28;20022;-80
2022/06/28 09:07:47;;;;;;;6.43;4.22;;;;;;;;;;5013124;28;20056;-82
2022/06/28 09:10:13;;;;;;;6.68;4.35;;;;;;;;;;5012209;28;20029;-84
2022/06/28 09:12:39;;;;;;;5.95;3.95;;;;;;;;;;5010243;28;20030;-75
2022/06/28 09:15:06;;;;;;;8.02;4.57;;;;;;;;;;5010954;28;20033;-77
2022/06/28 09:17:33;;;;;;;13.95;4.68;;;;;;;;;;5012494;28;20427;-85
2022/06/28 09:20:07;;;;;;;10.38;4.07;;;;;;;;;;4992471;28;20095;-84
2022/06/28 09:22:35;;;;;;;6.10;4.38;;;;;;;;;;5008601;28;20156;-83
2022/06/28 09:25:03;;;;;;;11.13;5.03;;;;;;;;;;4998736;28;20062;-83
2022/06/28 09:27:31;;;;;;;8.43;3.90;;;;;;;;;;4993091;28;20060;-83
2022/06/28 09:29:57;;;;;;;10.00;4.35;;;;;;;;;;5012215;28;20032;-81
2022/06/28 09:32:34;;;;;;;7.60;4.05;;;;;;;;;;5012597;28;20450;-82
2022/06/28 09:35:04;;;;;;;7.30;4.57;;;;;;;;;;4998137;28;20093;-81
2022/06/28 09:37:37;;;;;;;7.32;4.10;;;;;;;;;;5012986;28;20433;-82
2022/06/28 09:40:03;;;;;;;;;;;;;;;;;;5005223;28;20065;-82
2022/06/28 09:42:29;;;;;;;8.70;4.30;;;;;;;;;;5001074;28;20011;-82
2022/06/28 09:44:55;;;;;;;6.47;4.03;;;;;;;;;;5008958;28;20025;-81
2022/06/28 09:47:21;;;;;;;5.50;3.83;;;;;;;;;;5011140;28;20033;-81
2022/06/28 09:49:47;;;;;;;9.25;4.50;;;;;;;;;;5011940;28;20017;-84
2022/06/28 09:52:14;;;;;;;11.02;4.10;;;;;;;;;;4993479;28;20041;-81
2022/06/28 09:54:43;;;;;;;11.82;4.70;;;;;;;;;;4990324;28;20030;-83
2022/06/28 09:57:12;;;;;;;8.18;3.90;;;;;;;;;;4992969;28;20026;-82
2022/06/28 09:59:38;;;;;;;5.47;3.65;;;;;;;;;;4990292;28;20023;-82
2022/06/28 10:02:05;;;;;;;6.47;3.50;;;;;;;;;;5008976;28;20034;-82
2022/06/28 10:04:31;;;;;;;4.60;3.83;;;;;;;;;;4991456;28;20436;-83
2022/06/28 10:06:58;;;;;;;7.22;3.70;;;;;;;;;;5008011;28;20026;-82
2022/06/28 10:09:25;;;;;;;5.05;3.63;;;;;;;;;;4991709;28;20314;-82
2022/06/28 10:17:33;;;;;;;7.13;3.75;;;;;;;;;;5010313;28;20557;-82
2022/06/28 10:20:00;;;;;;;12.32;4.60;;;;;;;;;;4987120;28;20502;-82
2022/06/28 10:22:26;;;;;;;7.18;3.47;;;;;;;;;;4989553;28;20050;-82
2022/06/28 10:24:57;;;;;;;8.07;3.97;;;;;;;;;;5002123;28;20032;-83
2022/06/28 10:27:23;;;;;;;9.43;3.80;;;;;;;;;;4992059;28;20030;-83
2022/06/28 10:30:00;;;;;;;5.97;3.80;;;;;;;;;;4987906;28;20038;-82
2022/06/28 10:32:44;;;;;;;10.02;3.70;;;;;;;;;;5003528;28;20025;-82
2022/06/28 10:35:11;;;;;;;9.68;4.05;;;;;;;;;;5005908;28;20022;-87
2022/06/28 10:37:56;;;;;;;7.55;3.65;;;;;;;;;;5011843;28;20839;-77
2022/06/28 10:40:23;;;;;;;8.25;4.18;;;;;;;;;;5007638;28;20038;-78
2022/06/28 10:42:53;;;;;;;7.70;4.13;;;;;;;;;;5009810;28;20061;-78
2022/06/28 10:45:22;;;;;;;8.18;3.58;;;;;;;;;;4993575;28;20034;-79
2022/06/28 10:48:09;;;;;;;10.25;4.10;;;;;;;;;;5010052;28;20033;-78
2022/06/28 10:50:54;;;;;;;6.53;3.60;;;;;;;;;;5009513;28;20388;-79
2022/06/28 10:53:20;;;;;;;6.03;3.50;;;;;;;;;;5007685;28;20117;-77
2022/06/28 10:56:06;;;;;;;4.80;3.40;;;;;;;;;;5010824;28;20059;-78
2022/06/28 10:58:32;;;;;;;9.25;3.90;;;;;;;;;;4988783;28;20026;-79
2022/06/28 11:00:58;;;;;;;10.85;4.32;;;;;;;;;;4989652;28;20073;-80
2022/06/28 11:03:24;;;;;;;8.10;3.75;;;;;;;;;;5007603;28;20061;-79
2022/06/28 11:05:52;;;;;;;11.02;3.97;;;;;;;;;;5009065;28;20033;-82
2022/06/28 11:08:34;;;;;;;7.60;3.55;;;;;;;;;;5007705;28;20459;-77
2022/06/28 11:11:02;;;;;;;5.78;3.42;;;;;;;;;;5009877;28;20030;-79
2022/06/28 11:13:28;;;;;;;5.53;3.28;;;;;;;;;;5008828;28;20031;-79
2022/06/28 11:15:54;;;;;;;9.75;3.83;;;;;;;;;;5011693;28;21291;-78
2022/06/28 11:18:23;;;;;;;10.00;3.78;;;;;;;;;;5012967;28;20034;-81
2022/06/28 11:20:50;;;;;;;7.82;3.50;;;;;;;;;;5011322;28;20180;-78
2022/06/28 11:23:29;;;;;;;5.60;3.30;;;;;;;;;;5012167;28;20038;-79
2022/06/28 11:28:54;;;;;;;7.05;3.90;;;;;;;;;;5014133;28;20395;-79
2022/06/28 11:31:20;;;;;;;6.45;3.72;;;;;;;;;;5013810;28;20025;-87
2022/06/28 11:33:47;;;;;;;5.95;3.60;;;;;;;;;;5014314;28;20026;-76
2022/06/28 11:36:32;;;;;;;7.40;3.40;;;;;;;;;;5010187;28;20053;-79
2022/06/28 11:39:16;;;;;;;6.32;3.55;;;;;;;;;;5011859;28;20018;-79
2022/06/28 11:41:47;;;;;;;4.95;3.35;;;;;;;;;;5014875;28;20041;-80
2022/06/28 11:44:13;;;;;;;9.18;3.78;;;;;;;;;;5013881;28;20499;-80
2022/06/28 11:46:39;;;;;;;6.50;3.65;;;;;;;;;;5013845;28;20435;-80
2022/06/28 11:49:06;;;;;;;8.85;3.40;;;;;;;;;;5013387;28;20419;-79
2022/06/28 11:51:32;;;;;;;8.35;3.55;;;;;;;;;;5014259;28;20034;-82
2022/06/28 11:54:06;;;;;;;12.50;3.60;;;;;;;;;;5012338;28;20371;-79
2022/06/28 11:56:48;;;;;;;9.68;3.78;;;;;;;;;;5011929;28;20026;-78
2022/06/28 11:59:15;;;;;;;8.25;3.60;;;;;;;;;;5013271;28;20028;-81
2022/06/28 12:01:42;;;;;;;8.27;3.42;;;;;;;;;;5015603;28;20042;-79
2022/06/28 12:04:11;;;;;;;5.82;3.30;;;;;;;;;;5012142;28;20017;-80
2022/06/28 12:06:42;;;;;;;6.82;3.60;;;;;;;;;;5013812;28;20515;-79
2022/06/28 12:09:11;;;;;;;6.65;3.42;;;;;;;;;;5012102;28;20407;-79
2022/06/28 12:11:47;;;;;;;13.77;4.13;;;;;;;;;;4994035;28;20026;-79
2022/06/28 12:14:17;;;;;;;9.45;3.70;;;;;;;;;;5012260;28;20075;-85
2022/06/28 12:16:44;;;;;;;7.90;3.92;;;;;;;;;;5012631;28;20448;-80
2022/06/28 12:19:18;;;;;;;8.80;4.05;;;;;;;;;;5014309;28;20052;-89
2022/06/28 12:21:58;;;;;;;26.58;4.70;;;;;;;;;;5008126;28;20038;-77
2022/06/28 12:24:43;;;;;;;8.00;3.40;;;;;;;;;;5014004;28;20026;-81
2022/06/28 12:27:13;;;;;;;7.50;3.30;;;;;;;;;;5008589;28;20026;-81
2022/06/28 12:29:39;;;;;;;11.98;3.92;;;;;;;;;;5012358;28;20509;-78
2022/06/28 12:32:06;;;;;;;5.57;3.30;;;;;;;;;;5010831;28;20053;-77
2022/06/28 12:34:32;;;;;;;7.25;3.92;;;;;;;;;;5012972;28;20030;-78
2022/06/28 12:36:58;;;;;;;7.72;3.65;;;;;;;;;;5003113;28;20077;-76
2022/06/28 12:39:24;;;;;;;10.00;3.33;;;;;;;;;;5001562;28;20121;-78
2022/06/28 12:41:51;;;;;;;8.98;3.45;;;;;;;;;;5014289;28;20034;-80
2022/06/28 12:44:17;;;;;;;5.68;3.47;;;;;;;;;;5006640;28;20022;-77
2022/06/28 12:46:44;;;;;;;6.25;3.28;;;;;;;;;;5006953;28;20037;-82
2022/06/28 12:49:11;;;;;;;9.15;3.38;;;;;;;;;;5013052;28;20036;-72
2022/06/28 12:51:37;;;;;;;4.90;3.42;;;;;;;;;;4992878;28;20030;-77
2022/06/28 12:54:03;;;;;;;6.70;4.15;;;;;;;;;;5009873;28;20030;-78
2022/06/28 12:56:30;;;;;;;8.27;3.55;;;;;;;;;;5009566;28;20107;-77
2022/06/28 12:58:58;;;;;;;14.30;4.63;;;;;;;;;;5010677;28;20076;-84
2022/06/28 13:01:24;;;;;;;6.35;4.30;;;;;;;;;;5005470;28;20029;-85
2022/06/28 13:03:50;;;;;;;7.25;3.55;;;;;;;;;;5007330;28;20034;-77
2022/06/28 13:06:16;;;;;;;10.48;3.60;;;;;;;;;;5010815;28;20109;-76
2022/06/28 13:08:43;;;;;;;12.63;3.63;;;;;;;;;;5007823;28;20025;-76
2022/06/28 13:11:09;;;;;;;10.00;3.63;;;;;;;;;;5007200;28;20026;-75
2022/06/28 13:13:35;;;;;;;9.13;3.65;;;;;;;;;;5008873;28;20077;-76
2022/06/28 13:16:01;;;;;;;8.30;4.00;;;;;;;;;;5003461;28;20092;-76
2022/06/28 13:18:28;;;;;;;10.65;3.58;;;;;;;;;;5009793;28;20030;-76
2022/06/28 13:20:54;;;;;;;7.15;3.60;;;;;;;;;;5014163;28;20049;-78
2022/06/28 13:23:21;;;;;;;6.43;3.38;;;;;;;;;;5012169;28;20038;-79
2022/06/28 13:25:48;;;;;;;6.90;3.50;;;;;;;;;;5015260;28;20037;-77
2022/06/28 13:28:14;;;;;;;6.40;3.42;;;;;;;;;;5009393;28;20357;-77
2022/06/28 13:30:41;;;;;;;7.85;3.53;;;;;;;;;;5010266;28;20099;-78
2022/06/28 13:33:08;;;;;;;11.55;3.70;;;;;;;;;;5011312;28;20090;-81
2022/06/28 13:35:34;;;;;;;8.45;3.38;;;;;;;;;;5010332;28;20083;-78
2022/06/28 13:38:00;;;;;;;25.60;4.25;;;;;;;;;;4990296;28;20038;-72
2022/06/28 13:40:27;;;;;;;10.07;3.53;;;;;;;;;;4974259;28;20080;-76
2022/06/28 13:42:54;;;;;;;11.55;3.58;;;;;;;;;;5006239;28;20030;-81
2022/06/28 13:45:20;;;;;;;15.45;4.25;;;;;;;;;;4993557;28;20056;-78
2022/06/28 13:47:46;;;;;;;7.20;3.40;;;;;;;;;;4989135;28;20045;-78
2022/06/28 13:50:12;;;;;;;11.55;3.33;;;;;;;;;;5016565;28;20029;-81
2022/06/28 13:52:42;;;;;;;14.25;3.75;;;;;;;;;;5010012;28;20117;-78
2022/06/28 13:55:09;;;;;;;8.50;3.45;;;;;;;;;;4991775;28;20058;-78
2022/06/28 13:57:35;;;;;;;8.63;3.55;;;;;;;;;;5011739;28;20037;-80
2022/06/28 14:00:03;;;;;;;6.68;3.47;;;;;;;;;;5009097;28;20038;-76
2022/06/28 14:02:29;;;;;;;9.48;3.65;;;;;;;;;;5011278;28;20105;-80
2022/06/28 14:04:55;;;;;;;6.90;3.35;;;;;;;;;;5011888;28;20056;-79
2022/06/28 14:07:21;;;;;;;6.78;3.60;;;;;;;;;;5012086;28;20041;-79
2022/06/28 14:09:47;;;;;;;7.20;3.60;;;;;;;;;;4989931;28;20050;-80
2022/06/28 14:12:13;;;;;;;11.20;3.75;;;;;;;;;;4991080;28;20030;-77
2022/06/28 14:14:39;;;;;;;8.75;3.22;;;;;;;;;;5007888;28;20023;-80
2022/06/28 14:17:05;;;;;;;8.23;3.60;;;;;;;;;;5011873;28;20053;-76
2022/06/28 14:19:31;;;;;;;14.02;3.60;;;;;;;;;;5009896;28;20030;-80
2022/06/28 14:21:57;;;;;;;9.80;3.10;;;;;;;;;;5010629;28;20098;-80
2022/06/28 14:24:23;;;;;;;8.10;3.40;;;;;;;;;;5008658;28;20025;-81
2022/06/28 14:26:50;;;;;;;6.95;3.50;;;;;;;;;;5008679;28;20109;-80
2022/06/28 14:29:17;;;;;;;8.50;3.38;;;;;;;;;;5007634;28;20030;-80
2022/06/28 14:31:43;;;;;;;10.45;3.47;;;;;;;;;;5008048;28;20026;-81
2022/06/28 14:34:13;;;;;;;7.28;3.88;;;;;;;;;;5011114;28;20072;-78
2022/06/28 14:36:39;;;;;;;15.18;3.78;;;;;;;;;;5010688;28;20034;-78
2022/06/28 14:39:06;;;;;;;18.55;3.63;;;;;;;;;;5009058;28;20480;-74
2022/06/28 14:41:32;;;;;;;12.18;3.50;;;;;;;;;;5009968;28;20046;-75
2022/06/28 14:43:58;;;;;;;10.80;3.65;;;;;;;;;;5009003;28;20022;-81
2022/06/28 14:46:24;;;;;;;10.07;3.67;;;;;;;;;;5011391;28;20064;-78
2022/06/28 14:48:51;;;;;;;8.27;3.33;;;;;;;;;;5010045;28;20018;-79
2022/06/28 14:51:17;;;;;;;7.93;3.40;;;;;;;;;;5010048;28;20018;-79
2022/06/28 14:53:43;;;;;;;9.27;3.88;;;;;;;;;;4988624;28;20033;-77
2022/06/28 14:56:09;;;;;;;6.90;3.28;;;;;;;;;;5007870;28;20029;-76
2022/06/28 14:58:36;;;;;;;17.27;3.92;;;;;;;;;;5008255;28;20112;-78
2022/06/28 15:01:03;;;;;;;11.05;4.10;;;;;;;;;;5004132;28;20529;-75